Time;durP1;ratioP1;P1;durP2;ratioP2;P2;SDS_P1;SDS_P2;PMS_P1;PMS_P2;Temp;Humidity;BMP_temperature;BMP_pressure;BME280_temperature;BME280_humidity;BME280_pressure;Samples;Min_cycle;Max_cycle;Signal;HPM_P1;HPM_P2
2024/02/21 00:00:45;;;;;;;11.40;2.67;;;;;;;;;;5978568;24;20012;-73
2024/02/21 00:03:11;;;;;;;14.48;2.78;;;;;;;;;;5978063;24;20060;-72
2024/02/21 00:05:36;;;;;;;16.13;2.75;;;;;;;;;;5979312;23;20000;-73
2024/02/21 00:08:03;;;;;;;9.45;3.20;;;;;;;;;;6001529;23;20011;-73
2024/02/21 00:10:28;;;;;;;13.20;2.90;;;;;;;;;;5978239;24;20010;-75
2024/02/21 00:12:54;;;;;;;14.02;3.10;;;;;;;;;;5977807;23;20478;-72
2024/02/21 00:15:20;;;;;;;11.00;3.05;;;;;;;;;;5987406;23;20015;-73
2024/02/21 00:17:45;;;;;;;5.68;2.45;;;;;;;;;;5985556;23;20012;-73
2024/02/21 00:20:11;;;;;;;11.40;2.65;;;;;;;;;;5979898;23;20434;-73
2024/02/21 00:22:37;;;;;;;12.52;3.22;;;;;;;;;;5978136;24;20008;-72
2024/02/21 00:25:05;;;;;;;7.88;2.33;;;;;;;;;;5979196;23;20071;-74
2024/02/21 00:27:32;;;;;;;8.82;3.55;;;;;;;;;;5980012;23;20102;-72
2024/02/21 00:29:58;;;;;;;10.88;3.33;;;;;;;;;;5977982;24;20443;-72
2024/02/21 00:32:23;;;;;;;7.57;2.50;;;;;;;;;;5979996;23;20011;-73
2024/02/21 00:34:49;;;;;;;10.75;3.55;;;;;;;;;;5979267;23;20008;-72
2024/02/21 00:37:14;;;;;;;12.90;3.05;;;;;;;;;;5980224;23;20012;-72
2024/02/21 00:39:40;;;;;;;15.32;3.13;;;;;;;;;;5979858;23;20107;-73
2024/02/21 00:42:07;;;;;;;10.40;2.53;;;;;;;;;;5979986;24;20044;-73
2024/02/21 00:44:33;;;;;;;13.05;3.33;;;;;;;;;;5981317;23;20012;-73
2024/02/21 00:46:59;;;;;;;12.05;2.97;;;;;;;;;;5977379;24;20307;-73
2024/02/21 00:49:24;;;;;;;10.88;3.22;;;;;;;;;;5977887;23;20533;-74
2024/02/21 00:51:50;;;;;;;12.20;3.58;;;;;;;;;;5977172;23;20028;-72
2024/02/21 00:54:16;;;;;;;15.52;3.58;;;;;;;;;;5980139;23;20008;-72
2024/02/21 00:56:42;;;;;;;15.68;3.70;;;;;;;;;;5978222;23;20087;-72
2024/02/21 00:59:08;;;;;;;14.77;3.88;;;;;;;;;;5979760;23;20012;-74
2024/02/21 01:01:33;;;;;;;8.13;3.10;;;;;;;;;;5980181;24;20008;-72
2024/02/21 01:03:59;;;;;;;10.00;3.42;;;;;;;;;;5977624;23;20037;-72
2024/02/21 01:06:24;;;;;;;7.53;3.20;;;;;;;;;;5979587;24;20523;-72
2024/02/21 01:08:51;;;;;;;17.13;3.50;;;;;;;;;;5977493;23;20019;-73
2024/02/21 01:11:17;;;;;;;12.37;3.03;;;;;;;;;;5979386;23;20000;-74
2024/02/21 01:13:43;;;;;;;19.45;4.03;;;;;;;;;;5977646;23;20015;-72
2024/02/21 01:16:08;;;;;;;12.75;3.50;;;;;;;;;;5979454;23;20004;-73
2024/02/21 01:18:34;;;;;;;11.38;3.42;;;;;;;;;;5977831;23;20018;-74
2024/02/21 01:20:59;;;;;;;13.65;3.70;;;;;;;;;;5979122;24;20469;-71
2024/02/21 01:23:26;;;;;;;10.30;3.83;;;;;;;;;;5979404;23;20475;-72
2024/02/21 01:25:52;;;;;;;16.92;3.70;;;;;;;;;;5978555;23;20385;-73
2024/02/21 01:28:18;;;;;;;15.50;4.63;;;;;;;;;;5977636;24;20006;-73
2024/02/21 01:30:44;;;;;;;12.15;3.92;;;;;;;;;;5953708;24;20059;-73
2024/02/21 01:33:09;;;;;;;13.85;4.07;;;;;;;;;;5979072;23;20004;-72
2024/02/21 01:35:36;;;;;;;12.80;3.50;;;;;;;;;;5977174;23;20090;-74
2024/02/21 01:38:02;;;;;;;13.85;4.03;;;;;;;;;;5977824;23;20028;-72
2024/02/21 01:40:28;;;;;;;14.43;3.53;;;;;;;;;;5979733;24;20010;-71
2024/02/21 01:42:55;;;;;;;18.42;3.75;;;;;;;;;;5977908;23;20063;-73
2024/02/21 01:45:21;;;;;;;12.45;3.55;;;;;;;;;;5979047;23;20023;-73
2024/02/21 01:47:47;;;;;;;8.25;3.30;;;;;;;;;;5978412;23;20000;-73
2024/02/21 01:50:14;;;;;;;13.15;3.35;;;;;;;;;;5980453;23;20434;-72
2024/02/21 01:52:40;;;;;;;9.95;3.17;;;;;;;;;;6010087;23;20010;-73
2024/02/21 01:55:07;;;;;;;8.05;3.25;;;;;;;;;;6009712;23;20500;-72
2024/02/21 01:57:33;;;;;;;8.77;3.30;;;;;;;;;;6009707;23;20007;-72
2024/02/21 01:59:59;;;;;;;11.60;3.47;;;;;;;;;;5986425;23;20098;-71
2024/02/21 02:02:24;;;;;;;11.98;3.28;;;;;;;;;;6010125;23;20066;-72
2024/02/21 02:04:51;;;;;;;8.18;3.00;;;;;;;;;;6010727;23;20432;-73
2024/02/21 02:07:17;;;;;;;12.82;3.42;;;;;;;;;;5988396;23;20018;-73
2024/02/21 02:09:43;;;;;;;6.87;2.90;;;;;;;;;;6009283;23;20086;-75
2024/02/21 02:12:09;;;;;;;8.50;2.80;;;;;;;;;;6010575;23;20011;-73
2024/02/21 02:14:36;;;;;;;8.07;3.20;;;;;;;;;;6011449;23;20015;-71
2024/02/21 02:17:01;;;;;;;11.20;3.30;;;;;;;;;;5988035;23;20011;-73
2024/02/21 02:19:27;;;;;;;8.38;3.38;;;;;;;;;;6035864;23;20074;-73
2024/02/21 02:22:00;;;;;;;13.07;3.67;;;;;;;;;;6010181;23;20090;-72
2024/02/21 02:24:27;;;;;;;14.13;3.97;;;;;;;;;;6034993;23;20335;-73
2024/02/21 02:26:52;;;;;;;9.20;3.53;;;;;;;;;;6009814;23;20453;-73
2024/02/21 02:29:19;;;;;;;10.32;3.45;;;;;;;;;;6010579;23;20015;-73
2024/02/21 02:31:44;;;;;;;11.05;3.42;;;;;;;;;;6010440;23;20017;-73
2024/02/21 02:34:10;;;;;;;13.90;4.43;;;;;;;;;;6035719;23;20395;-74
2024/02/21 02:36:35;;;;;;;12.50;4.55;;;;;;;;;;6010709;23;20344;-74
2024/02/21 02:39:01;;;;;;;7.07;3.63;;;;;;;;;;6010181;23;20135;-74
2024/02/21 02:41:26;;;;;;;10.18;3.58;;;;;;;;;;6035869;23;20425;-73
2024/02/21 02:43:52;;;;;;;10.10;3.50;;;;;;;;;;6037416;23;20003;-73
2024/02/21 02:46:18;;;;;;;10.43;3.53;;;;;;;;;;6040395;23;20011;-72
2024/02/21 02:48:44;;;;;;;11.82;3.05;;;;;;;;;;6012280;23;20060;-72
2024/02/21 02:51:10;;;;;;;13.60;3.83;;;;;;;;;;5992868;23;20052;-72
2024/02/21 02:53:36;;;;;;;11.60;3.23;;;;;;;;;;5977129;24;20334;-73
2024/02/21 02:56:02;;;;;;;10.63;3.47;;;;;;;;;;5977088;24;20460;-73
2024/02/21 02:58:28;;;;;;;9.27;3.28;;;;;;;;;;5977185;24;20009;-73
2024/02/21 03:00:54;;;;;;;13.60;3.83;;;;;;;;;;5978879;24;20037;-72
2024/02/21 03:03:19;;;;;;;7.93;3.22;;;;;;;;;;5979119;24;20056;-72
2024/02/21 03:05:45;;;;;;;15.38;3.38;;;;;;;;;;5978891;23;20011;-71
2024/02/21 03:08:11;;;;;;;9.38;2.95;;;;;;;;;;5980695;23;20004;-73
2024/02/21 03:10:36;;;;;;;10.93;2.97;;;;;;;;;;5978931;23;20012;-74
2024/02/21 03:13:03;;;;;;;9.57;3.25;;;;;;;;;;5981095;23;20429;-72
2024/02/21 03:15:29;;;;;;;9.80;3.00;;;;;;;;;;5980556;23;20004;-73
2024/02/21 03:17:54;;;;;;;8.48;4.25;;;;;;;;;;5980039;24;20008;-73
2024/02/21 03:20:20;;;;;;;10.30;4.30;;;;;;;;;;5955131;24;20022;-72
2024/02/21 03:22:45;;;;;;;12.23;3.00;;;;;;;;;;5978244;23;20023;-72
2024/02/21 03:25:12;;;;;;;9.45;3.33;;;;;;;;;;5978518;24;20042;-72
2024/02/21 03:27:39;;;;;;;7.90;3.17;;;;;;;;;;5980140;23;20008;-72
2024/02/21 03:30:05;;;;;;;12.90;4.70;;;;;;;;;;5980289;23;20004;-72
2024/02/21 03:32:30;;;;;;;5.90;2.55;;;;;;;;;;5978334;24;20054;-73
2024/02/21 03:34:56;;;;;;;12.30;3.20;;;;;;;;;;5978469;24;20008;-73
2024/02/21 03:37:22;;;;;;;10.65;3.78;;;;;;;;;;5980173;23;20004;-72
2024/02/21 03:39:47;;;;;;;9.13;2.85;;;;;;;;;;5978552;24;20052;-72
2024/02/21 03:42:13;;;;;;;10.70;3.35;;;;;;;;;;5980437;24;20008;-72
2024/02/21 03:44:39;;;;;;;13.07;3.17;;;;;;;;;;5978991;23;20342;-72
2024/02/21 03:47:04;;;;;;;7.43;3.15;;;;;;;;;;5980691;24;20011;-72
2024/02/21 03:49:30;;;;;;;10.45;3.10;;;;;;;;;;5983605;23;20004;-72
2024/02/21 03:51:57;;;;;;;11.27;3.13;;;;;;;;;;6027604;23;20019;-72
2024/02/21 03:54:22;;;;;;;8.65;3.22;;;;;;;;;;6016539;23;20090;-73
2024/02/21 03:56:48;;;;;;;12.88;3.38;;;;;;;;;;6012185;23;20031;-71
2024/02/21 03:59:14;;;;;;;7.72;2.85;;;;;;;;;;6011584;23;20004;-73
2024/02/21 04:01:39;;;;;;;12.88;3.10;;;;;;;;;;6010933;23;20010;-73
2024/02/21 04:04:05;;;;;;;14.27;3.60;;;;;;;;;;6036236;23;20484;-73
2024/02/21 04:06:31;;;;;;;11.55;2.97;;;;;;;;;;5987447;23;20011;-72
2024/02/21 04:08:57;;;;;;;11.70;3.38;;;;;;;;;;6036123;23;20039;-72
2024/02/21 04:11:22;;;;;;;7.88;2.80;;;;;;;;;;6036444;23;20016;-74
2024/02/21 04:13:50;;;;;;;8.93;3.60;;;;;;;;;;6010638;23;20337;-73
2024/02/21 04:16:16;;;;;;;6.45;3.25;;;;;;;;;;6036278;23;20011;-71
2024/02/21 04:18:42;;;;;;;12.88;3.05;;;;;;;;;;5987481;23;20070;-73
2024/02/21 04:21:09;;;;;;;6.83;3.30;;;;;;;;;;6035673;23;20337;-74
2024/02/21 04:23:34;;;;;;;14.43;3.58;;;;;;;;;;6011198;23;20007;-72
2024/02/21 04:26:00;;;;;;;11.60;3.58;;;;;;;;;;6036016;23;20035;-72
2024/02/21 04:28:26;;;;;;;9.65;2.67;;;;;;;;;;6010675;23;20440;-73
2024/02/21 04:30:51;;;;;;;10.88;2.83;;;;;;;;;;6036075;23;20031;-73
2024/02/21 04:33:17;;;;;;;7.77;3.43;;;;;;;;;;6036001;23;20031;-72
2024/02/21 04:35:42;;;;;;;8.03;2.90;;;;;;;;;;6035991;23;20009;-74
2024/02/21 04:38:08;;;;;;;11.37;3.33;;;;;;;;;;6035386;23;20412;-72
2024/02/21 04:40:35;;;;;;;10.30;2.97;;;;;;;;;;6036354;23;20015;-74
2024/02/21 04:43:00;;;;;;;11.10;3.05;;;;;;;;;;6036037;23;20011;-72
2024/02/21 04:45:26;;;;;;;10.10;2.85;;;;;;;;;;6010950;23;20014;-73
2024/02/21 04:47:52;;;;;;;10.57;3.13;;;;;;;;;;6010856;23;20003;-73
2024/02/21 04:50:18;;;;;;;12.98;3.10;;;;;;;;;;6011193;23;20066;-74
2024/02/21 04:52:44;;;;;;;18.92;4.15;;;;;;;;;;6036565;23;20003;-74
2024/02/21 04:55:09;;;;;;;8.00;3.37;;;;;;;;;;6035899;23;20003;-72
2024/02/21 04:57:35;;;;;;;10.57;3.23;;;;;;;;;;6036589;23;20070;-74
2024/02/21 05:00:01;;;;;;;12.57;3.40;;;;;;;;;;6010689;23;20336;-71
2024/02/21 05:02:26;;;;;;;10.37;2.93;;;;;;;;;;5987099;23;20018;-72
2024/02/21 05:04:53;;;;;;;9.53;3.20;;;;;;;;;;6010329;23;20397;-73
2024/02/21 05:07:20;;;;;;;7.30;3.60;;;;;;;;;;6010705;23;20127;-74
2024/02/21 05:09:45;;;;;;;9.20;3.17;;;;;;;;;;5987314;23;20019;-73
2024/02/21 05:12:11;;;;;;;11.83;3.07;;;;;;;;;;6035358;23;20003;-73
2024/02/21 05:14:37;;;;;;;13.07;4.73;;;;;;;;;;6015014;23;20396;-72
2024/02/21 05:17:03;;;;;;;10.10;3.15;;;;;;;;;;6011393;23;20467;-73
2024/02/21 05:19:29;;;;;;;11.50;3.37;;;;;;;;;;6011762;23;20031;-73
2024/02/21 05:21:54;;;;;;;14.03;4.70;;;;;;;;;;6036118;23;20007;-72
2024/02/21 05:24:20;;;;;;;15.73;3.70;;;;;;;;;;6010568;23;20103;-73
2024/02/21 05:26:46;;;;;;;11.80;3.47;;;;;;;;;;6010769;23;20015;-73
2024/02/21 05:29:11;;;;;;;8.90;3.23;;;;;;;;;;6012335;23;20480;-73
2024/02/21 05:31:52;;;;;;;11.05;3.20;;;;;;;;;;6036471;23;20011;-73
2024/02/21 05:34:19;;;;;;;8.23;2.90;;;;;;;;;;6036691;23;20438;-73
2024/02/21 05:36:44;;;;;;;11.40;3.37;;;;;;;;;;6036332;23;20003;-73
2024/02/21 05:39:10;;;;;;;11.50;3.50;;;;;;;;;;6035784;23;20015;-73
2024/02/21 05:41:36;;;;;;;7.95;3.00;;;;;;;;;;6011319;23;20018;-74
2024/02/21 05:44:01;;;;;;;9.55;4.78;;;;;;;;;;6036202;23;20374;-74
2024/02/21 05:46:27;;;;;;;11.35;3.25;;;;;;;;;;6036953;23;20340;-73
2024/02/21 05:48:53;;;;;;;12.43;3.42;;;;;;;;;;6012315;23;20183;-73
2024/02/21 05:51:18;;;;;;;15.82;3.38;;;;;;;;;;6011470;23;20344;-73
2024/02/21 05:53:45;;;;;;;16.40;4.03;;;;;;;;;;6037948;23;20003;-72
2024/02/21 05:56:11;;;;;;;10.25;3.33;;;;;;;;;;6037772;23;20018;-74
2024/02/21 05:58:37;;;;;;;11.65;4.05;;;;;;;;;;6036756;23;20003;-73
2024/02/21 06:01:03;;;;;;;8.27;3.17;;;;;;;;;;6037833;23;20448;-75
2024/02/21 06:03:29;;;;;;;6.88;3.00;;;;;;;;;;6010846;23;20063;-74
2024/02/21 06:05:56;;;;;;;11.45;3.60;;;;;;;;;;6036568;23;20445;-73
2024/02/21 06:08:21;;;;;;;14.70;4.72;;;;;;;;;;6036223;23;20007;-75
2024/02/21 06:10:48;;;;;;;11.05;3.33;;;;;;;;;;6035864;23;20010;-73
2024/02/21 06:13:14;;;;;;;14.57;4.10;;;;;;;;;;6010469;23;20010;-73
2024/02/21 06:15:40;;;;;;;13.60;3.90;;;;;;;;;;6035942;23;20046;-73
2024/02/21 06:18:05;;;;;;;12.70;4.07;;;;;;;;;;6035473;23;20008;-73
2024/02/21 06:20:31;;;;;;;17.83;3.55;;;;;;;;;;6035614;23;20448;-73
2024/02/21 06:22:57;;;;;;;10.05;3.92;;;;;;;;;;6010103;23;20011;-72
2024/02/21 06:25:23;;;;;;;11.52;3.55;;;;;;;;;;5986358;23;20106;-74
2024/02/21 06:27:48;;;;;;;9.98;3.25;;;;;;;;;;6009851;23;20043;-73
2024/02/21 06:30:14;;;;;;;13.70;5.05;;;;;;;;;;6025282;23;20067;-71
2024/02/21 06:32:40;;;;;;;13.98;3.72;;;;;;;;;;6030292;23;20007;-75
2024/02/21 06:35:05;;;;;;;12.27;4.00;;;;;;;;;;6035196;23;20018;-73
2024/02/21 06:37:32;;;;;;;11.48;5.32;;;;;;;;;;6036740;23;20008;-76
2024/02/21 06:39:58;;;;;;;11.77;4.13;;;;;;;;;;6035489;23;20018;-72
2024/02/21 06:42:26;;;;;;;18.10;4.22;;;;;;;;;;6011296;23;20306;-75
2024/02/21 06:44:52;;;;;;;14.38;4.18;;;;;;;;;;6036755;23;20026;-73
2024/02/21 06:47:18;;;;;;;14.98;4.25;;;;;;;;;;6037590;23;20003;-74
2024/02/21 06:49:49;;;;;;;10.82;3.40;;;;;;;;;;6012274;23;20011;-74
2024/02/21 06:52:17;;;;;;;17.38;3.80;;;;;;;;;;6036066;23;20098;-75
2024/02/21 06:54:42;;;;;;;13.60;3.67;;;;;;;;;;6013197;23;20012;-75
2024/02/21 06:57:08;;;;;;;16.33;4.00;;;;;;;;;;6013186;23;20014;-74
2024/02/21 06:59:34;;;;;;;16.05;3.60;;;;;;;;;;6012055;23;20065;-75
2024/02/21 07:02:00;;;;;;;8.40;2.95;;;;;;;;;;5987604;23;20019;-77
2024/02/21 07:04:27;;;;;;;9.77;3.97;;;;;;;;;;6041606;23;20007;-74
2024/02/21 07:06:53;;;;;;;9.45;3.83;;;;;;;;;;6044272;23;20075;-76
2024/02/21 07:09:19;;;;;;;17.48;4.20;;;;;;;;;;6053016;23;20008;-74
2024/02/21 07:11:45;;;;;;;10.43;3.83;;;;;;;;;;6028636;23;20007;-74
2024/02/21 07:14:11;;;;;;;13.07;3.83;;;;;;;;;;6047606;23;20015;-74
2024/02/21 07:16:40;;;;;;;15.82;5.35;;;;;;;;;;6034339;23;20525;-76
2024/02/21 07:19:06;;;;;;;13.68;4.22;;;;;;;;;;6016395;23;20397;-75
2024/02/21 07:21:33;;;;;;;16.52;4.20;;;;;;;;;;5989815;23;20026;-76
2024/02/21 07:23:59;;;;;;;7.45;3.00;;;;;;;;;;6015218;23;20217;-74
2024/02/21 07:26:25;;;;;;;16.80;4.00;;;;;;;;;;6014568;23;20333;-75
2024/02/21 07:28:52;;;;;;;11.95;4.25;;;;;;;;;;6017347;23;20007;-73
2024/02/21 07:31:20;;;;;;;12.05;3.60;;;;;;;;;;6038946;23;20011;-74
2024/02/21 07:33:46;;;;;;;16.88;3.85;;;;;;;;;;5991105;23;20396;-74
2024/02/21 07:36:12;;;;;;;10.68;4.55;;;;;;;;;;5993110;23;20019;-76
2024/02/21 07:38:39;;;;;;;13.75;3.80;;;;;;;;;;6038982;23;20366;-77
2024/02/21 07:41:04;;;;;;;18.42;6.13;;;;;;;;;;6015194;23;20143;-73
2024/02/21 07:43:31;;;;;;;16.83;4.60;;;;;;;;;;6036947;23;20003;-75
2024/02/21 07:45:57;;;;;;;9.48;4.60;;;;;;;;;;6016148;23;20077;-75
2024/02/21 07:48:26;;;;;;;13.50;4.35;;;;;;;;;;6010706;23;20368;-76
2024/02/21 07:50:54;;;;;;;7.03;3.60;;;;;;;;;;6014843;23;20052;-73
2024/02/21 07:53:22;;;;;;;12.65;3.63;;;;;;;;;;6018980;23;20037;-76
2024/02/21 07:55:55;;;;;;;10.85;3.53;;;;;;;;;;6052303;23;20003;-72
2024/02/21 07:58:21;;;;;;;12.65;3.22;;;;;;;;;;6000811;23;20310;-73
2024/02/21 08:00:48;;;;;;;12.07;4.10;;;;;;;;;;5992618;23;20043;-77
2024/02/21 08:03:17;;;;;;;13.60;4.40;;;;;;;;;;6035388;23;20014;-74
2024/02/21 08:05:43;;;;;;;11.48;3.47;;;;;;;;;;5990722;23;20046;-76
2024/02/21 08:08:10;;;;;;;9.23;3.67;;;;;;;;;;6016962;23;20003;-75
2024/02/21 08:10:39;;;;;;;10.20;3.65;;;;;;;;;;6017753;23;19999;-78
2024/02/21 08:13:05;;;;;;;12.30;3.78;;;;;;;;;;6011834;23;20003;-74
2024/02/21 08:15:31;;;;;;;18.80;4.43;;;;;;;;;;6016059;23;20439;-76
2024/02/21 08:17:59;;;;;;;9.40;3.38;;;;;;;;;;6041368;23;20015;-77
2024/02/21 08:20:27;;;;;;;10.15;4.18;;;;;;;;;;6014309;23;20390;-77
2024/02/21 08:22:53;;;;;;;12.02;4.00;;;;;;;;;;6012619;23;20018;-77
2024/02/21 08:25:19;;;;;;;12.60;3.80;;;;;;;;;;6040870;23;20050;-74
2024/02/21 08:27:45;;;;;;;11.60;3.90;;;;;;;;;;6039551;23;20081;-79
2024/02/21 08:30:12;;;;;;;21.90;4.60;;;;;;;;;;6039919;23;20670;-74
2024/02/21 08:32:39;;;;;;;10.32;3.55;;;;;;;;;;6039647;23;20119;-78
2024/02/21 08:35:12;;;;;;;13.20;3.95;;;;;;;;;;6015906;23;20010;-76
2024/02/21 08:37:48;;;;;;;12.55;4.32;;;;;;;;;;6016325;23;20245;-76
2024/02/21 08:40:17;;;;;;;13.95;4.38;;;;;;;;;;5993769;23;20015;-75
2024/02/21 08:42:47;;;;;;;10.75;4.07;;;;;;;;;;6037725;23;20018;-75
2024/02/21 08:45:13;;;;;;;14.88;5.00;;;;;;;;;;6019470;23;20015;-77
2024/02/21 08:47:47;;;;;;;11.65;4.40;;;;;;;;;;6016413;23;20011;-77
2024/02/21 08:50:13;;;;;;;7.30;3.53;;;;;;;;;;6016598;23;20142;-77
2024/02/21 08:52:43;;;;;;;12.23;3.75;;;;;;;;;;6015740;23;20015;-76
2024/02/21 08:55:09;;;;;;;17.73;4.40;;;;;;;;;;6045317;23;20519;-76
2024/02/21 08:57:58;;;;;;;10.45;4.25;;;;;;;;;;6041106;23;20012;-74
2024/02/21 09:00:26;;;;;;;14.40;4.32;;;;;;;;;;5957327;24;20067;-76
2024/02/21 09:02:52;;;;;;;11.43;4.07;;;;;;;;;;5956019;24;20023;-76
2024/02/21 09:05:18;;;;;;;14.10;4.47;;;;;;;;;;5982070;23;20048;-78
2024/02/21 09:07:48;;;;;;;13.73;3.97;;;;;;;;;;5957132;24;20035;-74
2024/02/21 09:10:21;;;;;;;13.55;3.92;;;;;;;;;;5980028;24;20533;-77
2024/02/21 09:13:03;;;;;;;14.70;4.65;;;;;;;;;;5948035;24;20376;-76
2024/02/21 09:15:51;;;;;;;9.88;3.60;;;;;;;;;;5977113;24;20016;-73
2024/02/21 09:18:28;;;;;;;10.55;4.68;;;;;;;;;;5979607;24;20016;-72
2024/02/21 09:21:02;;;;;;;12.77;3.72;;;;;;;;;;5889061;24;20038;-76
2024/02/21 09:23:29;;;;;;;15.30;4.55;;;;;;;;;;5958719;24;20148;-77
2024/02/21 09:26:13;;;;;;;10.05;3.97;;;;;;;;;;5979788;24;20008;-76
2024/02/21 09:28:40;;;;;;;9.82;4.22;;;;;;;;;;5981983;24;20019;-76
2024/02/21 09:31:18;;;;;;;12.15;3.97;;;;;;;;;;5956626;24;20442;-75
2024/02/21 09:33:46;;;;;;;9.00;3.50;;;;;;;;;;5981928;24;20015;-76
2024/02/21 09:36:12;;;;;;;10.38;4.55;;;;;;;;;;5982069;24;20103;-76
2024/02/21 09:39:21;;;;;;;11.38;4.40;;;;;;;;;;5959169;24;20012;-76
2024/02/21 09:42:03;;;;;;;10.70;3.63;;;;;;;;;;5983200;24;20096;-77
2024/02/21 09:44:43;;;;;;;14.98;3.65;;;;;;;;;;5981482;24;20593;-71
2024/02/21 09:47:56;;;;;;;16.20;4.22;;;;;;;;;;5977820;24;20480;-72
2024/02/21 09:50:29;;;;;;;10.80;4.20;;;;;;;;;;5948091;23;20022;-72
2024/02/21 09:53:03;;;;;;;9.32;3.90;;;;;;;;;;6010295;23;20022;-71
2024/02/21 09:55:34;;;;;;;12.55;4.28;;;;;;;;;;5966476;23;20039;-71
2024/02/21 09:58:12;;;;;;;7.47;3.65;;;;;;;;;;5993086;23;20083;-72
2024/02/21 10:00:38;;;;;;;13.43;3.40;;;;;;;;;;6036614;23;20031;-69
2024/02/21 10:03:08;;;;;;;6.53;3.13;;;;;;;;;;6010618;23;20023;-70
2024/02/21 10:05:35;;;;;;;11.40;3.58;;;;;;;;;;6011775;23;20150;-71
2024/02/21 10:08:01;;;;;;;10.90;4.28;;;;;;;;;;6011311;23;20009;-72
2024/02/21 10:11:17;;;;;;;8.93;3.50;;;;;;;;;;6008148;23;20011;-72
2024/02/21 10:13:44;;;;;;;9.32;3.38;;;;;;;;;;6001062;23;20011;-70
2024/02/21 10:16:13;;;;;;;7.95;3.53;;;;;;;;;;6011519;23;20015;-71
2024/02/21 10:18:40;;;;;;;9.27;3.30;;;;;;;;;;6039042;23;20000;-72
2024/02/21 10:21:07;;;;;;;13.07;3.75;;;;;;;;;;5985183;23;20326;-73
2024/02/21 10:23:48;;;;;;;10.70;3.42;;;;;;;;;;6009688;23;20039;-70
2024/02/21 10:26:17;;;;;;;8.48;3.03;;;;;;;;;;6008442;23;20023;-74
2024/02/21 10:28:45;;;;;;;10.55;3.63;;;;;;;;;;6009184;23;20106;-69
2024/02/21 10:31:42;;;;;;;10.13;3.53;;;;;;;;;;5985281;23;20468;-71
2024/02/21 10:34:25;;;;;;;10.43;3.20;;;;;;;;;;6036419;23;20018;-71
2024/02/21 10:37:19;;;;;;;13.55;2.75;;;;;;;;;;6011840;23;20041;-71
2024/02/21 10:39:45;;;;;;;6.43;2.88;;;;;;;;;;6009749;23;20011;-74
2024/02/21 10:42:16;;;;;;;6.97;3.03;;;;;;;;;;6033350;23;20022;-70
2024/02/21 10:44:43;;;;;;;6.65;2.22;;;;;;;;;;6032633;23;20529;-75
2024/02/21 10:47:12;;;;;;;10.43;2.53;;;;;;;;;;6008079;23;20215;-70
2024/02/21 10:49:47;;;;;;;8.80;2.55;;;;;;;;;;6033452;23;20010;-72
2024/02/21 10:52:17;;;;;;;9.30;2.40;;;;;;;;;;5984244;23;20031;-71
2024/02/21 10:54:56;;;;;;;8.52;2.42;;;;;;;;;;6032463;23;20038;-74
2024/02/21 10:57:23;;;;;;;7.68;2.70;;;;;;;;;;6007318;23;20015;-71
2024/02/21 11:00:19;;;;;;;6.50;1.90;;;;;;;;;;6008392;23;20404;-71
2024/02/21 11:03:11;;;;;;;7.35;2.08;;;;;;;;;;6034607;23;20003;-72
2024/02/21 11:05:41;;;;;;;7.68;2.30;;;;;;;;;;6007819;23;20019;-70
2024/02/21 11:08:16;;;;;;;10.40;2.50;;;;;;;;;;6005499;23;20015;-72
2024/02/21 11:11:05;;;;;;;3.65;1.80;;;;;;;;;;6033754;23;20417;-71
2024/02/21 11:13:51;;;;;;;3.97;1.80;;;;;;;;;;6005582;23;20720;-75
2024/02/21 11:17:03;;;;;;;6.88;2.10;;;;;;;;;;5945646;24;20027;-74
2024/02/21 11:19:50;;;;;;;5.50;2.65;;;;;;;;;;5924436;24;20038;-71
2024/02/21 11:22:40;;;;;;;9.15;2.50;;;;;;;;;;5946554;24;20019;-71
2024/02/21 11:25:13;;;;;;;4.93;2.25;;;;;;;;;;5925324;24;20009;-70
2024/02/21 11:27:46;;;;;;;9.20;3.47;;;;;;;;;;5948710;24;20008;-72
2024/02/21 11:30:22;;;;;;;7.40;2.17;;;;;;;;;;5946995;24;20020;-71
2024/02/21 11:33:05;;;;;;;9.27;2.85;;;;;;;;;;5948220;24;20004;-71
2024/02/21 11:35:33;;;;;;;9.05;3.42;;;;;;;;;;5949759;24;20012;-72
2024/02/21 11:38:14;;;;;;;7.97;2.55;;;;;;;;;;5926245;24;20013;-73
2024/02/21 11:40:46;;;;;;;10.07;3.10;;;;;;;;;;5949459;24;20009;-70
2024/02/21 11:43:19;;;;;;;6.18;3.13;;;;;;;;;;5916204;24;20329;-72
2024/02/21 11:46:01;;;;;;;6.28;2.30;;;;;;;;;;5946720;24;20351;-68
2024/02/21 11:48:50;;;;;;;5.72;2.85;;;;;;;;;;5987657;23;20337;-72
2024/02/21 11:51:36;;;;;;;7.43;3.17;;;;;;;;;;6010209;23;20034;-73
2024/02/21 11:54:04;;;;;;;7.22;2.40;;;;;;;;;;6037033;23;20426;-71
2024/02/21 11:56:50;;;;;;;8.73;2.88;;;;;;;;;;6037460;23;20070;-71
2024/02/21 11:59:19;;;;;;;8.73;2.95;;;;;;;;;;6012065;23;20409;-69
2024/02/21 12:01:45;;;;;;;5.60;2.50;;;;;;;;;;6037325;23;20015;-70
2024/02/21 12:04:36;;;;;;;6.20;2.60;;;;;;;;;;5990639;23;20441;-72
2024/02/21 12:07:15;;;;;;;8.35;2.90;;;;;;;;;;6012667;23;20080;-70
2024/02/21 12:09:42;;;;;;;7.55;2.17;;;;;;;;;;6010184;23;20428;-71
2024/02/21 12:12:17;;;;;;;8.07;2.90;;;;;;;;;;5985594;23;20377;-73
2024/02/21 12:15:00;;;;;;;3.83;2.30;;;;;;;;;;6035668;23;20011;-69
2024/02/21 12:17:28;;;;;;;8.15;2.28;;;;;;;;;;6030136;23;20022;-71
2024/02/21 12:19:54;;;;;;;7.15;2.35;;;;;;;;;;5984184;23;20078;-69
2024/02/21 12:22:23;;;;;;;8.13;2.70;;;;;;;;;;6031186;23;20007;-71
2024/02/21 12:24:50;;;;;;;8.75;2.30;;;;;;;;;;6008536;23;20007;-73
2024/02/21 12:27:17;;;;;;;8.98;4.40;;;;;;;;;;6034317;23;20098;-71
2024/02/21 12:29:46;;;;;;;5.20;1.85;;;;;;;;;;6008734;23;20007;-74
2024/02/21 12:32:12;;;;;;;4.55;2.17;;;;;;;;;;6033086;23;20007;-70
2024/02/21 12:34:57;;;;;;;5.55;2.50;;;;;;;;;;6036175;23;20019;-70
2024/02/21 12:37:25;;;;;;;4.60;1.85;;;;;;;;;;6005081;23;20047;-71
2024/02/21 12:39:55;;;;;;;3.87;1.60;;;;;;;;;;6034085;23;20306;-71
2024/02/21 12:42:23;;;;;;;8.48;2.35;;;;;;;;;;6030603;23;20238;-73
2024/02/21 12:44:56;;;;;;;5.75;2.13;;;;;;;;;;6035409;23;20364;-74
2024/02/21 12:47:24;;;;;;;7.88;2.15;;;;;;;;;;6035710;23;20381;-71
2024/02/21 12:49:53;;;;;;;5.43;2.63;;;;;;;;;;6035791;23;20397;-71
2024/02/21 12:52:20;;;;;;;11.35;2.40;;;;;;;;;;5986252;23;20114;-71
2024/02/21 12:55:00;;;;;;;8.05;2.40;;;;;;;;;;6036495;23;20025;-71
2024/02/21 12:57:35;;;;;;;10.77;4.53;;;;;;;;;;6034875;23;20011;-71
2024/02/21 13:00:27;;;;;;;8.20;2.50;;;;;;;;;;6035680;23;20003;-71
2024/02/21 13:02:53;;;;;;;9.48;2.28;;;;;;;;;;6036267;23;20041;-70
2024/02/21 13:05:19;;;;;;;6.18;2.15;;;;;;;;;;6009234;23;21000;-70
2024/02/21 13:07:49;;;;;;;3.75;2.20;;;;;;;;;;6033910;23;20007;-71
2024/02/21 13:10:24;;;;;;;4.72;2.03;;;;;;;;;;6030965;23;20011;-71
2024/02/21 13:13:15;;;;;;;5.43;1.98;;;;;;;;;;6010353;23;20023;-71
2024/02/21 13:15:43;;;;;;;6.18;2.63;;;;;;;;;;6035298;23;20014;-71
2024/02/21 13:18:15;;;;;;;4.25;1.67;;;;;;;;;;6029540;23;20093;-72
2024/02/21 13:20:43;;;;;;;4.85;1.95;;;;;;;;;;5986235;23;20011;-71
2024/02/21 13:23:11;;;;;;;4.95;2.00;;;;;;;;;;6034009;23;20083;-71
2024/02/21 13:25:40;;;;;;;6.18;1.67;;;;;;;;;;6009437;23;20097;-70
2024/02/21 13:28:06;;;;;;;5.40;1.80;;;;;;;;;;5986607;23;20011;-70
2024/02/21 13:30:46;;;;;;;3.88;1.90;;;;;;;;;;6009496;23;20025;-68
2024/02/21 13:33:20;;;;;;;3.60;1.25;;;;;;;;;;5987960;23;20070;-73
2024/02/21 13:35:50;;;;;;;8.13;2.38;;;;;;;;;;6035189;23;20011;-73
2024/02/21 13:38:25;;;;;;;6.22;1.85;;;;;;;;;;6025275;23;20007;-74
2024/02/21 13:40:51;;;;;;;3.15;1.70;;;;;;;;;;6009439;23;20106;-73
2024/02/21 13:43:22;;;;;;;5.20;2.00;;;;;;;;;;6008729;23;20050;-70
2024/02/21 13:46:13;;;;;;;6.45;1.98;;;;;;;;;;6009277;23;20007;-71
2024/02/21 13:48:48;;;;;;;5.60;1.67;;;;;;;;;;5984698;23;20067;-71
2024/02/21 13:51:16;;;;;;;4.05;1.52;;;;;;;;;;6005740;23;20497;-71
2024/02/21 13:54:09;;;;;;;2.33;1.58;;;;;;;;;;6034292;23;20094;-72
2024/02/21 13:56:36;;;;;;;4.90;2.03;;;;;;;;;;6009818;23;20085;-72
2024/02/21 13:59:37;;;;;;;4.63;2.13;;;;;;;;;;6008984;23;20007;-70
2024/02/21 14:02:37;;;;;;;4.60;2.10;;;;;;;;;;6033950;23;20336;-70
2024/02/21 14:05:14;;;;;;;5.00;2.05;;;;;;;;;;6033904;23;20011;-70
2024/02/21 14:07:40;;;;;;;4.43;2.20;;;;;;;;;;6035227;23;20038;-71
2024/02/21 14:10:09;;;;;;;7.03;1.83;;;;;;;;;;6034478;23;20612;-73
2024/02/21 14:12:35;;;;;;;7.95;2.40;;;;;;;;;;6034104;23;20567;-71
2024/02/21 14:15:06;;;;;;;5.50;1.95;;;;;;;;;;6034926;23;20007;-71
2024/02/21 14:17:33;;;;;;;7.18;1.70;;;;;;;;;;5985122;23;20026;-70
2024/02/21 14:20:04;;;;;;;5.85;1.90;;;;;;;;;;6008086;23;20015;-72
2024/02/21 14:22:34;;;;;;;7.32;2.00;;;;;;;;;;6008149;23;20102;-71
2024/02/21 14:25:25;;;;;;;6.10;1.85;;;;;;;;;;5985498;23;20015;-71
2024/02/21 14:27:51;;;;;;;9.93;1.98;;;;;;;;;;6007900;23;20012;-71
2024/02/21 14:30:18;;;;;;;5.60;1.65;;;;;;;;;;5986031;23;20022;-71
2024/02/21 14:32:45;;;;;;;9.57;1.92;;;;;;;;;;6035313;23;20022;-74
2024/02/21 14:35:16;;;;;;;4.65;1.92;;;;;;;;;;6014152;23;20205;-74
2024/02/21 14:37:43;;;;;;;14.57;2.35;;;;;;;;;;6042181;23;20003;-73
2024/02/21 14:40:10;;;;;;;10.50;2.88;;;;;;;;;;6015588;23;20011;-75
2024/02/21 14:42:35;;;;;;;6.30;2.33;;;;;;;;;;5990885;23;20043;-75
2024/02/21 14:45:04;;;;;;;5.93;2.42;;;;;;;;;;6015054;23;20007;-74
2024/02/21 14:47:33;;;;;;;10.68;2.10;;;;;;;;;;6016699;23;20007;-74
2024/02/21 14:50:02;;;;;;;5.18;2.00;;;;;;;;;;6040817;23;20453;-76